sensor_id;sensor_type;location;lat;lon;timestamp;pressure;altitude;pressure_sealevel;temperature
42197;BMP280;27866;48.146;17.098;2023-02-28T00:02:29;100650.19;;;6.02
42197;BMP280;27866;48.146;17.098;2023-02-28T00:06:40;100654.41;;;6.04
42197;BMP280;27866;48.146;17.098;2023-02-28T00:10:52;100653.56;;;6.04
42197;BMP280;27866;48.146;17.098;2023-02-28T00:15:10;100668.91;;;6.05
42197;BMP280;27866;48.146;17.098;2023-02-28T00:19:21;100668.91;;;6.05
42197;BMP280;27866;48.146;17.098;2023-02-28T00:23:33;100669.91;;;6.01
42197;BMP280;27866;48.146;17.098;2023-02-28T00:27:45;100673.41;;;5.99
42197;BMP280;27866;48.146;17.098;2023-02-28T00:31:57;100676.75;;;6.02
42197;BMP280;27866;48.146;17.098;2023-02-28T00:36:10;100685.41;;;6.00
42197;BMP280;27866;48.146;17.098;2023-02-28T00:40:22;100687.31;;;5.95
42197;BMP280;27866;48.146;17.098;2023-02-28T00:44:33;100681.38;;;5.93
42197;BMP280;27866;48.146;17.098;2023-02-28T00:48:45;100689.41;;;5.84
42197;BMP280;27866;48.146;17.098;2023-02-28T00:52:56;100690.53;;;5.78
42197;BMP280;27866;48.146;17.098;2023-02-28T00:57:07;100696.47;;;5.78
42197;BMP280;27866;48.146;17.098;2023-02-28T01:01:19;100700.94;;;5.73
42197;BMP280;27866;48.146;17.098;2023-02-28T01:05:30;100712.34;;;5.66
42197;BMP280;27866;48.146;17.098;2023-02-28T01:09:41;100706.25;;;5.69
42197;BMP280;27866;48.146;17.098;2023-02-28T01:13:53;100700.53;;;5.61
42197;BMP280;27866;48.146;17.098;2023-02-28T01:18:04;100705.66;;;5.61
42197;BMP280;27866;48.146;17.098;2023-02-28T01:22:16;100704.22;;;5.53
42197;BMP280;27866;48.146;17.098;2023-02-28T01:26:27;100704.03;;;5.59
42197;BMP280;27866;48.146;17.098;2023-02-28T01:30:38;100713.81;;;5.48
42197;BMP280;27866;48.146;17.098;2023-02-28T01:34:51;100706.94;;;5.49
42197;BMP280;27866;48.146;17.098;2023-02-28T01:39:02;100708.59;;;5.51
42197;BMP280;27866;48.146;17.098;2023-02-28T01:43:52;100705.38;;;5.45
42197;BMP280;27866;48.146;17.098;2023-02-28T01:48:07;100711.44;;;5.42
42197;BMP280;27866;48.146;17.098;2023-02-28T01:52:20;100712.66;;;5.56
42197;BMP280;27866;48.146;17.098;2023-02-28T01:56:34;100719.59;;;5.54
42197;BMP280;27866;48.146;17.098;2023-02-28T02:00:47;100715.25;;;5.56
42197;BMP280;27866;48.146;17.098;2023-02-28T02:05:10;100716.63;;;5.66
42197;BMP280;27866;48.146;17.098;2023-02-28T02:09:22;100718.31;;;5.67
42197;BMP280;27866;48.146;17.098;2023-02-28T02:17:49;100727.81;;;5.40
42197;BMP280;27866;48.146;17.098;2023-02-28T02:41:19;100727.56;;;4.42
42197;BMP280;27866;48.146;17.098;2023-02-28T02:49:59;100725.06;;;4.41
42197;BMP280;27866;48.146;17.098;2023-02-28T02:54:26;100734.28;;;4.46
42197;BMP280;27866;48.146;17.098;2023-02-28T02:58:42;100729.34;;;4.40
42197;BMP280;27866;48.146;17.098;2023-02-28T03:02:55;100731.09;;;4.38
42197;BMP280;27866;48.146;17.098;2023-02-28T03:07:06;100732.88;;;4.36
42197;BMP280;27866;48.146;17.098;2023-02-28T03:11:18;100736.22;;;4.38
42197;BMP280;27866;48.146;17.098;2023-02-28T03:20:56;100722.63;;;4.36
42197;BMP280;27866;48.146;17.098;2023-02-28T03:30:00;100739.38;;;4.19
42197;BMP280;27866;48.146;17.098;2023-02-28T03:34:24;100724.31;;;4.09
42197;BMP280;27866;48.146;17.098;2023-02-28T03:38:48;100736.97;;;4.14
42197;BMP280;27866;48.146;17.098;2023-02-28T03:43:13;100738.78;;;4.10
42197;BMP280;27866;48.146;17.098;2023-02-28T03:47:39;100737.97;;;4.08
42197;BMP280;27866;48.146;17.098;2023-02-28T03:51:51;100742.09;;;3.84
42197;BMP280;27866;48.146;17.098;2023-02-28T04:00:40;100740.00;;;3.68
42197;BMP280;27866;48.146;17.098;2023-02-28T04:04:53;100748.00;;;3.57
42197;BMP280;27866;48.146;17.098;2023-02-28T04:09:07;100751.63;;;3.48
42197;BMP280;27866;48.146;17.098;2023-02-28T04:13:19;100752.63;;;3.43
42197;BMP280;27866;48.146;17.098;2023-02-28T04:17:30;100760.22;;;3.46
42197;BMP280;27866;48.146;17.098;2023-02-28T04:21:48;100765.28;;;3.49
42197;BMP280;27866;48.146;17.098;2023-02-28T04:25:59;100762.06;;;3.41
42197;BMP280;27866;48.146;17.098;2023-02-28T04:30:11;100769.84;;;3.37
42197;BMP280;27866;48.146;17.098;2023-02-28T04:34:23;100763.06;;;3.34
42197;BMP280;27866;48.146;17.098;2023-02-28T04:38:37;100773.38;;;3.32
42197;BMP280;27866;48.146;17.098;2023-02-28T04:42:49;100775.06;;;3.34
42197;BMP280;27866;48.146;17.098;2023-02-28T04:47:00;100781.91;;;3.32
42197;BMP280;27866;48.146;17.098;2023-02-28T04:51:14;100778.41;;;3.36
42197;BMP280;27866;48.146;17.098;2023-02-28T04:55:26;100772.41;;;3.37
42197;BMP280;27866;48.146;17.098;2023-02-28T04:59:37;100774.25;;;3.31
42197;BMP280;27866;48.146;17.098;2023-02-28T05:03:50;100778.63;;;3.27
42197;BMP280;27866;48.146;17.098;2023-02-28T05:08:01;100777.09;;;3.20
42197;BMP280;27866;48.146;17.098;2023-02-28T05:12:13;100775.47;;;3.17
42197;BMP280;27866;48.146;17.098;2023-02-28T05:16:24;100776.25;;;3.20
42197;BMP280;27866;48.146;17.098;2023-02-28T05:20:35;100780.31;;;3.28
42197;BMP280;27866;48.146;17.098;2023-02-28T05:24:46;100778.41;;;3.36
42197;BMP280;27866;48.146;17.098;2023-02-28T05:28:57;100782.53;;;3.41
42197;BMP280;27866;48.146;17.098;2023-02-28T05:33:11;100792.63;;;3.47
42197;BMP280;27866;48.146;17.098;2023-02-28T05:37:22;100795.66;;;3.62
42197;BMP280;27866;48.146;17.098;2023-02-28T05:41:34;100786.72;;;3.76
42197;BMP280;27866;48.146;17.098;2023-02-28T05:45:45;100790.66;;;3.89
42197;BMP280;27866;48.146;17.098;2023-02-28T05:49:56;100797.25;;;3.97
42197;BMP280;27866;48.146;17.098;2023-02-28T05:54:09;100796.94;;;4.08
42197;BMP280;27866;48.146;17.098;2023-02-28T05:58:20;100804.25;;;4.21
42197;BMP280;27866;48.146;17.098;2023-02-28T06:02:32;100810.78;;;4.33
42197;BMP280;27866;48.146;17.098;2023-02-28T06:06:47;100813.72;;;4.49
42197;BMP280;27866;48.146;17.098;2023-02-28T06:11:03;100815.81;;;4.63
42197;BMP280;27866;48.146;17.098;2023-02-28T06:15:17;100809.38;;;4.79
42197;BMP280;27866;48.146;17.098;2023-02-28T06:19:28;100811.28;;;4.99
42197;BMP280;27866;48.146;17.098;2023-02-28T06:23:41;100809.91;;;5.16
42197;BMP280;27866;48.146;17.098;2023-02-28T06:27:52;100816.34;;;5.29
42197;BMP280;27866;48.146;17.098;2023-02-28T06:32:04;100821.66;;;5.49
42197;BMP280;27866;48.146;17.098;2023-02-28T06:36:17;100824.56;;;5.66
42197;BMP280;27866;48.146;17.098;2023-02-28T06:40:28;100827.50;;;5.79
42197;BMP280;27866;48.146;17.098;2023-02-28T06:44:42;100822.47;;;5.77
42197;BMP280;27866;48.146;17.098;2023-02-28T06:48:54;100822.28;;;6.06
42197;BMP280;27866;48.146;17.098;2023-02-28T06:53:05;100815.63;;;6.47
42197;BMP280;27866;48.146;17.098;2023-02-28T06:57:16;100818.13;;;10.28
42197;BMP280;27866;48.146;17.098;2023-02-28T07:01:28;100802.16;;;14.01
42197;BMP280;27866;48.146;17.098;2023-02-28T07:05:39;100799.84;;;15.87
42197;BMP280;27866;48.146;17.098;2023-02-28T07:09:51;100803.50;;;14.56
42197;BMP280;27866;48.146;17.098;2023-02-28T07:14:02;100806.53;;;11.57
42197;BMP280;27866;48.146;17.098;2023-02-28T07:18:13;100816.09;;;9.32
42197;BMP280;27866;48.146;17.098;2023-02-28T07:22:25;100826.81;;;8.52
42197;BMP280;27866;48.146;17.098;2023-02-28T07:26:36;100820.19;;;8.84
42197;BMP280;27866;48.146;17.098;2023-02-28T07:30:47;100831.16;;;8.32
42197;BMP280;27866;48.146;17.098;2023-02-28T07:34:59;100824.41;;;7.90
42197;BMP280;27866;48.146;17.098;2023-02-28T07:39:10;100830.69;;;8.80
42197;BMP280;27866;48.146;17.098;2023-02-28T07:43:22;100828.00;;;10.36
42197;BMP280;27866;48.146;17.098;2023-02-28T07:47:33;100824.38;;;11.91
42197;BMP280;27866;48.146;17.098;2023-02-28T07:51:45;100821.84;;;14.91
42197;BMP280;27866;48.146;17.098;2023-02-28T07:55:59;100821.16;;;15.94
42197;BMP280;27866;48.146;17.098;2023-02-28T08:00:12;100819.28;;;16.06
42197;BMP280;27866;48.146;17.098;2023-02-28T08:04:25;100820.44;;;15.92
42197;BMP280;27866;48.146;17.098;2023-02-28T08:08:37;100820.31;;;15.93
42197;BMP280;27866;48.146;17.098;2023-02-28T08:12:48;100814.72;;;15.52
42197;BMP280;27866;48.146;17.098;2023-02-28T08:17:00;100827.13;;;15.26
42197;BMP280;27866;48.146;17.098;2023-02-28T08:21:11;100827.00;;;14.31
42197;BMP280;27866;48.146;17.098;2023-02-28T08:25:23;100826.19;;;14.30
42197;BMP280;27866;48.146;17.098;2023-02-28T08:29:37;100834.09;;;14.29
42197;BMP280;27866;48.146;17.098;2023-02-28T08:33:49;100841.63;;;14.45
42197;BMP280;27866;48.146;17.098;2023-02-28T08:38:03;100835.25;;;13.09
42197;BMP280;27866;48.146;17.098;2023-02-28T08:42:14;100838.91;;;13.71
42197;BMP280;27866;48.146;17.098;2023-02-28T08:46:25;100842.44;;;15.30
42197;BMP280;27866;48.146;17.098;2023-02-28T08:50:37;100841.66;;;17.09
42197;BMP280;27866;48.146;17.098;2023-02-28T08:54:48;100833.28;;;20.67
42197;BMP280;27866;48.146;17.098;2023-02-28T08:59:00;100832.94;;;21.94
42197;BMP280;27866;48.146;17.098;2023-02-28T09:03:11;100829.38;;;23.12
42197;BMP280;27866;48.146;17.098;2023-02-28T09:07:22;100826.13;;;23.66
42197;BMP280;27866;48.146;17.098;2023-02-28T09:11:34;100827.31;;;25.56
42197;BMP280;27866;48.146;17.098;2023-02-28T09:15:46;100831.28;;;25.68
42197;BMP280;27866;48.146;17.098;2023-02-28T09:19:57;100824.63;;;25.64
42197;BMP280;27866;48.146;17.098;2023-02-28T09:24:09;100837.34;;;21.50
42197;BMP280;27866;48.146;17.098;2023-02-28T09:28:23;100824.50;;;24.28
42197;BMP280;27866;48.146;17.098;2023-02-28T09:32:34;100831.97;;;24.79
42197;BMP280;27866;48.146;17.098;2023-02-28T09:36:45;100827.47;;;25.18
42197;BMP280;27866;48.146;17.098;2023-02-28T09:41:01;100822.84;;;26.45
42197;BMP280;27866;48.146;17.098;2023-02-28T09:45:31;100814.53;;;27.48
42197;BMP280;27866;48.146;17.098;2023-02-28T09:49:48;100816.50;;;26.90
42197;BMP280;27866;48.146;17.098;2023-02-28T09:54:00;100814.91;;;20.12
42197;BMP280;27866;48.146;17.098;2023-02-28T09:59:39;100823.75;;;16.60
42197;BMP280;27866;48.146;17.098;2023-02-28T10:03:40;100824.13;;;14.71
42197;BMP280;27866;48.146;17.098;2023-02-28T10:08:17;100833.13;;;13.80
42197;BMP280;27866;48.146;17.098;2023-02-28T10:12:32;100827.06;;;13.15
42197;BMP280;27866;48.146;17.098;2023-02-28T10:16:55;100838.69;;;12.69
42197;BMP280;27866;48.146;17.098;2023-02-28T10:21:21;100826.56;;;12.41
42197;BMP280;27866;48.146;17.098;2023-02-28T10:25:37;100835.38;;;12.10
42197;BMP280;27866;48.146;17.098;2023-02-28T10:29:52;100836.59;;;11.89
42197;BMP280;27866;48.146;17.098;2023-02-28T10:34:04;100840.44;;;11.69
42197;BMP280;27866;48.146;17.098;2023-02-28T10:38:33;100840.34;;;11.56
42197;BMP280;27866;48.146;17.098;2023-02-28T10:47:25;100812.63;;;11.71
42197;BMP280;27866;48.146;17.098;2023-02-28T10:51:41;100813.16;;;11.47
42197;BMP280;27866;48.146;17.098;2023-02-28T11:00:24;100820.22;;;10.99
42197;BMP280;27866;48.146;17.098;2023-02-28T11:04:36;100811.53;;;11.00
42197;BMP280;27866;48.146;17.098;2023-02-28T11:08:54;100807.22;;;11.30
42197;BMP280;27866;48.146;17.098;2023-02-28T11:13:05;100809.03;;;10.99
42197;BMP280;27866;48.146;17.098;2023-02-28T11:17:26;100803.84;;;11.14
42197;BMP280;27866;48.146;17.098;2023-02-28T11:21:38;100799.13;;;11.21
42197;BMP280;27866;48.146;17.098;2023-02-28T11:25:53;100796.41;;;11.38
42197;BMP280;27866;48.146;17.098;2023-02-28T11:30:31;100795.03;;;12.87
42197;BMP280;27866;48.146;17.098;2023-02-28T11:34:47;100773.25;;;18.45
42197;BMP280;27866;48.146;17.098;2023-02-28T11:39:12;100764.13;;;22.21
42197;BMP280;27866;48.146;17.098;2023-02-28T11:48:45;100729.50;;;25.54
42197;BMP280;27866;48.146;17.098;2023-02-28T11:53:10;100744.91;;;24.06
42197;BMP280;27866;48.146;17.098;2023-02-28T11:57:49;100738.94;;;25.19
42197;BMP280;27866;48.146;17.098;2023-02-28T12:11:52;100712.28;;;27.77
42197;BMP280;27866;48.146;17.098;2023-02-28T12:16:41;100710.16;;;28.27
42197;BMP280;27866;48.146;17.098;2023-02-28T12:30:31;100693.88;;;29.02
42197;BMP280;27866;48.146;17.098;2023-02-28T12:34:49;100682.47;;;28.81
42197;BMP280;27866;48.146;17.098;2023-02-28T12:39:12;100677.59;;;28.91
42197;BMP280;27866;48.146;17.098;2023-02-28T12:43:34;100659.03;;;29.49
42197;BMP280;27866;48.146;17.098;2023-02-28T12:47:55;100666.09;;;28.91
42197;BMP280;27866;48.146;17.098;2023-02-28T12:52:08;100663.00;;;28.81
42197;BMP280;27866;48.146;17.098;2023-02-28T13:10:12;100640.53;;;29.02
42197;BMP280;27866;48.146;17.098;2023-02-28T13:14:36;100641.41;;;28.49
42197;BMP280;27866;48.146;17.098;2023-02-28T13:18:48;100642.41;;;28.69
42197;BMP280;27866;48.146;17.098;2023-02-28T13:23:00;100635.19;;;27.89
42197;BMP280;27866;48.146;17.098;2023-02-28T13:31:27;100629.56;;;27.78
42197;BMP280;27866;48.146;17.098;2023-02-28T13:35:44;100621.00;;;28.03
42197;BMP280;27866;48.146;17.098;2023-02-28T13:40:33;100621.94;;;24.24
42197;BMP280;27866;48.146;17.098;2023-02-28T13:49:32;100615.34;;;25.61
42197;BMP280;27866;48.146;17.098;2023-02-28T13:54:13;100621.84;;;25.81
42197;BMP280;27866;48.146;17.098;2023-02-28T14:07:50;100614.63;;;25.75
42197;BMP280;27866;48.146;17.098;2023-02-28T14:12:52;100619.63;;;24.44
42197;BMP280;27866;48.146;17.098;2023-02-28T14:17:14;100617.00;;;24.06
42197;BMP280;27866;48.146;17.098;2023-02-28T14:21:34;100612.06;;;24.71
42197;BMP280;27866;48.146;17.098;2023-02-28T19:08:03;100691.63;;;4.17
42197;BMP280;27866;48.146;17.098;2023-02-28T19:12:15;100698.03;;;5.35
42197;BMP280;27866;48.146;17.098;2023-02-28T19:16:29;100687.91;;;5.79
42197;BMP280;27866;48.146;17.098;2023-02-28T19:20:40;100688.31;;;5.91
42197;BMP280;27866;48.146;17.098;2023-02-28T19:24:52;100691.66;;;5.93
42197;BMP280;27866;48.146;17.098;2023-02-28T19:29:04;100698.59;;;5.91
42197;BMP280;27866;48.146;17.098;2023-02-28T19:33:16;100698.81;;;5.85
42197;BMP280;27866;48.146;17.098;2023-02-28T19:37:28;100698.97;;;5.81
42197;BMP280;27866;48.146;17.098;2023-02-28T19:41:39;100693.19;;;5.75
42197;BMP280;27866;48.146;17.098;2023-02-28T19:45:50;100700.22;;;5.70
42197;BMP280;27866;48.146;17.098;2023-02-28T19:50:01;100699.44;;;5.68
42197;BMP280;27866;48.146;17.098;2023-02-28T19:54:12;100700.38;;;5.65
42197;BMP280;27866;48.146;17.098;2023-02-28T19:58:24;100685.97;;;5.62
42197;BMP280;27866;48.146;17.098;2023-02-28T20:02:36;100687.75;;;5.58
42197;BMP280;27866;48.146;17.098;2023-02-28T20:06:47;100698.88;;;5.59
42197;BMP280;27866;48.146;17.098;2023-02-28T20:11:08;100694.63;;;5.58
42197;BMP280;27866;48.146;17.098;2023-02-28T20:15:19;100699.88;;;5.55
42197;BMP280;27866;48.146;17.098;2023-02-28T20:19:30;100699.09;;;5.53
42197;BMP280;27866;48.146;17.098;2023-02-28T20:23:42;100697.47;;;5.50
42197;BMP280;27866;48.146;17.098;2023-02-28T20:27:54;100692.38;;;5.49
42197;BMP280;27866;48.146;17.098;2023-02-28T20:32:06;100707.94;;;5.45
42197;BMP280;27866;48.146;17.098;2023-02-28T20:36:19;100705.47;;;5.42
42197;BMP280;27866;48.146;17.098;2023-02-28T20:40:31;100711.63;;;5.38
42197;BMP280;27866;48.146;17.098;2023-02-28T20:44:42;100698.00;;;5.36
42197;BMP280;27866;48.146;17.098;2023-02-28T20:48:53;100700.63;;;5.33
42197;BMP280;27866;48.146;17.098;2023-02-28T20:53:05;100700.63;;;5.33
42197;BMP280;27866;48.146;17.098;2023-02-28T20:57:16;100693.09;;;5.29
42197;BMP280;27866;48.146;17.098;2023-02-28T21:01:29;100687.97;;;5.29
42197;BMP280;27866;48.146;17.098;2023-02-28T21:05:40;100683.72;;;5.28
42197;BMP280;27866;48.146;17.098;2023-02-28T21:09:54;100682.19;;;5.22
42197;BMP280;27866;48.146;17.098;2023-02-28T21:14:12;100682.19;;;5.22
42197;BMP280;27866;48.146;17.098;2023-02-28T21:18:23;100684.06;;;5.18
42197;BMP280;27866;48.146;17.098;2023-02-28T21:22:34;100680.69;;;5.16
42197;BMP280;27866;48.146;17.098;2023-02-28T21:26:46;100678.34;;;5.10
42197;BMP280;27866;48.146;17.098;2023-02-28T21:31:07;100677.66;;;5.05
42197;BMP280;27866;48.146;17.098;2023-02-28T21:35:18;100678.63;;;5.01
42197;BMP280;27866;48.146;17.098;2023-02-28T21:39:30;100682.09;;;5.00
42197;BMP280;27866;48.146;17.098;2023-02-28T21:43:47;100676.06;;;5.01
42197;BMP280;27866;48.146;17.098;2023-02-28T21:47:58;100682.25;;;4.96
42197;BMP280;27866;48.146;17.098;2023-02-28T21:52:09;100690.97;;;4.91
42197;BMP280;27866;48.146;17.098;2023-02-28T21:56:27;100688.59;;;4.85
42197;BMP280;27866;48.146;17.098;2023-02-28T22:00:39;100695.50;;;4.83
42197;BMP280;27866;48.146;17.098;2023-02-28T22:04:51;100687.94;;;4.78
42197;BMP280;27866;48.146;17.098;2023-02-28T22:09:06;100692.22;;;4.78
42197;BMP280;27866;48.146;17.098;2023-02-28T22:13:19;100697.41;;;4.77
42197;BMP280;27866;48.146;17.098;2023-02-28T22:17:30;100693.38;;;4.70
42197;BMP280;27866;48.146;17.098;2023-02-28T22:21:42;100692.63;;;4.66
42197;BMP280;27866;48.146;17.098;2023-02-28T22:25:54;100689.41;;;4.60
42197;BMP280;27866;48.146;17.098;2023-02-28T22:30:06;100697.22;;;4.56
42197;BMP280;27866;48.146;17.098;2023-02-28T22:34:17;100705.88;;;4.53
42197;BMP280;27866;48.146;17.098;2023-02-28T22:38:29;100688.97;;;4.47
42197;BMP280;27866;48.146;17.098;2023-02-28T22:42:45;100691.59;;;4.45
42197;BMP280;27866;48.146;17.098;2023-02-28T22:46:56;100695.03;;;4.44
42197;BMP280;27866;48.146;17.098;2023-02-28T22:51:14;100699.47;;;4.39
42197;BMP280;27866;48.146;17.098;2023-02-28T22:55:25;100703.69;;;4.40
42197;BMP280;27866;48.146;17.098;2023-02-28T22:59:37;100695.13;;;4.41
42197;BMP280;27866;48.146;17.098;2023-02-28T23:03:48;100692.56;;;4.41
42197;BMP280;27866;48.146;17.098;2023-02-28T23:07:59;100696.91;;;4.39
42197;BMP280;27866;48.146;17.098;2023-02-28T23:12:11;100696.00;;;4.42
42197;BMP280;27866;48.146;17.098;2023-02-28T23:20:46;100692.69;;;4.37
42197;BMP280;27866;48.146;17.098;2023-02-28T23:24:57;100686.72;;;4.36
42197;BMP280;27866;48.146;17.098;2023-02-28T23:29:10;100683.38;;;4.34
42197;BMP280;27866;48.146;17.098;2023-02-28T23:33:21;100681.81;;;4.31
42197;BMP280;27866;48.146;17.098;2023-02-28T23:37:34;100686.94;;;4.31
42197;BMP280;27866;48.146;17.098;2023-02-28T23:41:46;100688.69;;;4.29
42197;BMP280;27866;48.146;17.098;2023-02-28T23:45:57;100686.25;;;4.24
42197;BMP280;27866;48.146;17.098;2023-02-28T23:50:10;100694.81;;;4.25
42197;BMP280;27866;48.146;17.098;2023-02-28T23:54:21;100693.97;;;4.24
42197;BMP280;27866;48.146;17.098;2023-02-28T23:58:33;100688.09;;;4.21
